sensor_id;sensor_type;location;lat;lon;timestamp;P1;durP1;ratioP1;P2;durP2;ratioP2
31660;SDS011;18267;52.234;7.444;2024-01-16T00:01:58;2.47;;;0.80;;
31660;SDS011;18267;52.234;7.444;2024-01-16T00:04:24;4.05;;;1.08;;
31660;SDS011;18267;52.234;7.444;2024-01-16T00:06:51;3.42;;;1.15;;
31660;SDS011;18267;52.234;7.444;2024-01-16T00:09:17;5.93;;;1.02;;
31660;SDS011;18267;52.234;7.444;2024-01-16T00:11:43;7.78;;;0.85;;
31660;SDS011;18267;52.234;7.444;2024-01-16T00:14:08;5.40;;;1.20;;
31660;SDS011;18267;52.234;7.444;2024-01-16T00:16:41;11.25;;;1.77;;
31660;SDS011;18267;52.234;7.444;2024-01-16T00:19:11;5.78;;;1.13;;
31660;SDS011;18267;52.234;7.444;2024-01-16T00:21:41;4.68;;;1.13;;
31660;SDS011;18267;52.234;7.444;2024-01-16T00:24:08;14.93;;;2.25;;
31660;SDS011;18267;52.234;7.444;2024-01-16T00:26:33;3.55;;;1.48;;
31660;SDS011;18267;52.234;7.444;2024-01-16T00:28:59;2.47;;;1.48;;
31660;SDS011;18267;52.234;7.444;2024-01-16T00:31:25;6.00;;;1.20;;
31660;SDS011;18267;52.234;7.444;2024-01-16T00:33:51;4.75;;;1.63;;
31660;SDS011;18267;52.234;7.444;2024-01-16T00:36:16;7.95;;;1.83;;
31660;SDS011;18267;52.234;7.444;2024-01-16T00:38:42;8.07;;;1.50;;
31660;SDS011;18267;52.234;7.444;2024-01-16T00:41:07;7.45;;;1.42;;
31660;SDS011;18267;52.234;7.444;2024-01-16T00:43:33;12.40;;;1.08;;
31660;SDS011;18267;52.234;7.444;2024-01-16T00:46:00;8.30;;;1.45;;
31660;SDS011;18267;52.234;7.444;2024-01-16T00:48:26;5.60;;;1.55;;
31660;SDS011;18267;52.234;7.444;2024-01-16T00:50:51;6.10;;;1.33;;
31660;SDS011;18267;52.234;7.444;2024-01-16T00:53:17;4.82;;;1.35;;
31660;SDS011;18267;52.234;7.444;2024-01-16T00:55:42;8.93;;;1.75;;
31660;SDS011;18267;52.234;7.444;2024-01-16T00:58:08;6.68;;;1.63;;
31660;SDS011;18267;52.234;7.444;2024-01-16T01:00:34;5.97;;;1.48;;
31660;SDS011;18267;52.234;7.444;2024-01-16T01:03:00;8.50;;;1.95;;
31660;SDS011;18267;52.234;7.444;2024-01-16T01:05:26;5.70;;;1.60;;
31660;SDS011;18267;52.234;7.444;2024-01-16T01:07:55;2.95;;;1.10;;
31660;SDS011;18267;52.234;7.444;2024-01-16T01:10:21;6.25;;;1.45;;
31660;SDS011;18267;52.234;7.444;2024-01-16T01:12:48;3.40;;;1.30;;
31660;SDS011;18267;52.234;7.444;2024-01-16T01:15:13;5.88;;;1.20;;
31660;SDS011;18267;52.234;7.444;2024-01-16T01:17:40;6.97;;;1.40;;
31660;SDS011;18267;52.234;7.444;2024-01-16T01:20:06;5.25;;;1.70;;
31660;SDS011;18267;52.234;7.444;2024-01-16T01:22:37;3.97;;;1.10;;
31660;SDS011;18267;52.234;7.444;2024-01-16T01:25:02;4.95;;;1.48;;
31660;SDS011;18267;52.234;7.444;2024-01-16T01:27:29;4.20;;;1.27;;
31660;SDS011;18267;52.234;7.444;2024-01-16T01:29:54;8.85;;;1.80;;
31660;SDS011;18267;52.234;7.444;2024-01-16T01:32:20;2.67;;;1.10;;
31660;SDS011;18267;52.234;7.444;2024-01-16T01:34:46;7.43;;;1.83;;
31660;SDS011;18267;52.234;7.444;2024-01-16T01:37:12;7.85;;;1.23;;
31660;SDS011;18267;52.234;7.444;2024-01-16T01:39:37;3.15;;;1.10;;
31660;SDS011;18267;52.234;7.444;2024-01-16T01:42:03;8.00;;;1.25;;
31660;SDS011;18267;52.234;7.444;2024-01-16T01:44:29;2.72;;;0.75;;
31660;SDS011;18267;52.234;7.444;2024-01-16T01:46:54;3.55;;;1.20;;
31660;SDS011;18267;52.234;7.444;2024-01-16T01:49:21;8.77;;;1.42;;
31660;SDS011;18267;52.234;7.444;2024-01-16T01:51:48;6.95;;;1.60;;
31660;SDS011;18267;52.234;7.444;2024-01-16T01:54:14;2.92;;;0.60;;
31660;SDS011;18267;52.234;7.444;2024-01-16T01:56:44;12.73;;;1.73;;
31660;SDS011;18267;52.234;7.444;2024-01-16T01:59:10;5.35;;;0.80;;
31660;SDS011;18267;52.234;7.444;2024-01-16T02:01:38;6.45;;;1.30;;
31660;SDS011;18267;52.234;7.444;2024-01-16T02:04:05;4.55;;;1.42;;
31660;SDS011;18267;52.234;7.444;2024-01-16T02:06:32;4.28;;;1.40;;
31660;SDS011;18267;52.234;7.444;2024-01-16T02:08:58;7.20;;;0.93;;
31660;SDS011;18267;52.234;7.444;2024-01-16T02:11:24;7.15;;;0.93;;
31660;SDS011;18267;52.234;7.444;2024-01-16T02:13:50;4.13;;;1.17;;
31660;SDS011;18267;52.234;7.444;2024-01-16T02:16:19;11.73;;;1.58;;
31660;SDS011;18267;52.234;7.444;2024-01-16T02:18:51;4.00;;;0.98;;
31660;SDS011;18267;52.234;7.444;2024-01-16T02:21:21;3.35;;;1.27;;
31660;SDS011;18267;52.234;7.444;2024-01-16T02:23:47;3.85;;;0.80;;
31660;SDS011;18267;52.234;7.444;2024-01-16T02:26:17;8.57;;;1.27;;
31660;SDS011;18267;52.234;7.444;2024-01-16T02:28:43;13.00;;;1.60;;
31660;SDS011;18267;52.234;7.444;2024-01-16T02:31:08;6.85;;;1.30;;
31660;SDS011;18267;52.234;7.444;2024-01-16T02:33:34;2.78;;;0.88;;
31660;SDS011;18267;52.234;7.444;2024-01-16T02:35:59;8.40;;;1.73;;
31660;SDS011;18267;52.234;7.444;2024-01-16T02:38:25;5.95;;;0.88;;
31660;SDS011;18267;52.234;7.444;2024-01-16T02:40:51;7.25;;;1.80;;
31660;SDS011;18267;52.234;7.444;2024-01-16T02:43:16;4.05;;;1.23;;
31660;SDS011;18267;52.234;7.444;2024-01-16T02:45:42;3.58;;;1.10;;
31660;SDS011;18267;52.234;7.444;2024-01-16T02:48:07;10.27;;;1.65;;
31660;SDS011;18267;52.234;7.444;2024-01-16T02:50:33;5.05;;;1.45;;
31660;SDS011;18267;52.234;7.444;2024-01-16T02:52:59;4.82;;;1.60;;
31660;SDS011;18267;52.234;7.444;2024-01-16T02:55:24;4.15;;;1.65;;
31660;SDS011;18267;52.234;7.444;2024-01-16T02:57:50;8.30;;;1.80;;
31660;SDS011;18267;52.234;7.444;2024-01-16T03:00:16;3.92;;;1.65;;
31660;SDS011;18267;52.234;7.444;2024-01-16T03:02:42;3.60;;;1.40;;
31660;SDS011;18267;52.234;7.444;2024-01-16T03:05:09;6.85;;;1.85;;
31660;SDS011;18267;52.234;7.444;2024-01-16T03:07:34;7.07;;;2.70;;
31660;SDS011;18267;52.234;7.444;2024-01-16T03:10:00;6.32;;;1.40;;
31660;SDS011;18267;52.234;7.444;2024-01-16T03:12:26;4.70;;;1.80;;
31660;SDS011;18267;52.234;7.444;2024-01-16T03:14:51;9.48;;;1.77;;
31660;SDS011;18267;52.234;7.444;2024-01-16T03:17:18;10.02;;;1.95;;
31660;SDS011;18267;52.234;7.444;2024-01-16T03:19:44;4.28;;;2.08;;
31660;SDS011;18267;52.234;7.444;2024-01-16T03:22:09;7.75;;;1.52;;
31660;SDS011;18267;52.234;7.444;2024-01-16T03:24:35;6.82;;;1.75;;
31660;SDS011;18267;52.234;7.444;2024-01-16T03:27:00;3.95;;;1.35;;
31660;SDS011;18267;52.234;7.444;2024-01-16T03:29:26;3.35;;;1.10;;
31660;SDS011;18267;52.234;7.444;2024-01-16T03:31:52;5.28;;;1.52;;
31660;SDS011;18267;52.234;7.444;2024-01-16T03:34:18;6.85;;;1.65;;
31660;SDS011;18267;52.234;7.444;2024-01-16T03:36:43;5.70;;;1.40;;
31660;SDS011;18267;52.234;7.444;2024-01-16T03:39:09;4.45;;;1.67;;
31660;SDS011;18267;52.234;7.444;2024-01-16T03:41:35;6.03;;;1.70;;
31660;SDS011;18267;52.234;7.444;2024-01-16T03:44:00;5.82;;;1.73;;
31660;SDS011;18267;52.234;7.444;2024-01-16T03:46:26;3.08;;;1.50;;
31660;SDS011;18267;52.234;7.444;2024-01-16T03:48:51;5.57;;;1.50;;
31660;SDS011;18267;52.234;7.444;2024-01-16T03:51:17;3.60;;;1.60;;
31660;SDS011;18267;52.234;7.444;2024-01-16T03:53:45;4.65;;;1.33;;
31660;SDS011;18267;52.234;7.444;2024-01-16T03:56:11;7.60;;;1.75;;
31660;SDS011;18267;52.234;7.444;2024-01-16T03:58:37;11.05;;;1.27;;
31660;SDS011;18267;52.234;7.444;2024-01-16T04:01:04;7.72;;;1.38;;
31660;SDS011;18267;52.234;7.444;2024-01-16T04:03:30;9.70;;;1.40;;
31660;SDS011;18267;52.234;7.444;2024-01-16T04:05:56;4.03;;;0.82;;
31660;SDS011;18267;52.234;7.444;2024-01-16T04:08:21;12.48;;;1.50;;
31660;SDS011;18267;52.234;7.444;2024-01-16T04:10:47;8.57;;;1.30;;
31660;SDS011;18267;52.234;7.444;2024-01-16T04:13:12;2.90;;;1.17;;
31660;SDS011;18267;52.234;7.444;2024-01-16T04:15:38;2.92;;;1.17;;
31660;SDS011;18267;52.234;7.444;2024-01-16T04:18:04;4.43;;;1.40;;
31660;SDS011;18267;52.234;7.444;2024-01-16T04:20:30;12.38;;;1.50;;
31660;SDS011;18267;52.234;7.444;2024-01-16T04:22:56;4.10;;;1.27;;
31660;SDS011;18267;52.234;7.444;2024-01-16T04:25:22;4.40;;;1.58;;
31660;SDS011;18267;52.234;7.444;2024-01-16T04:27:48;6.22;;;1.60;;
31660;SDS011;18267;52.234;7.444;2024-01-16T04:30:13;12.73;;;1.90;;
31660;SDS011;18267;52.234;7.444;2024-01-16T04:32:39;7.32;;;1.58;;
31660;SDS011;18267;52.234;7.444;2024-01-16T04:35:04;2.47;;;1.17;;
31660;SDS011;18267;52.234;7.444;2024-01-16T04:37:30;2.05;;;1.17;;
31660;SDS011;18267;52.234;7.444;2024-01-16T04:39:56;3.15;;;2.15;;
31660;SDS011;18267;52.234;7.444;2024-01-16T04:42:23;4.68;;;2.30;;
31660;SDS011;18267;52.234;7.444;2024-01-16T04:44:48;11.00;;;2.13;;
31660;SDS011;18267;52.234;7.444;2024-01-16T04:47:14;6.65;;;2.40;;
31660;SDS011;18267;52.234;7.444;2024-01-16T04:49:41;6.00;;;1.80;;
31660;SDS011;18267;52.234;7.444;2024-01-16T04:52:07;7.03;;;2.38;;
31660;SDS011;18267;52.234;7.444;2024-01-16T04:54:32;6.85;;;2.70;;
31660;SDS011;18267;52.234;7.444;2024-01-16T04:56:58;10.75;;;3.17;;
31660;SDS011;18267;52.234;7.444;2024-01-16T04:59:23;3.63;;;2.47;;
31660;SDS011;18267;52.234;7.444;2024-01-16T05:01:50;7.80;;;2.55;;
31660;SDS011;18267;52.234;7.444;2024-01-16T05:04:15;8.38;;;3.10;;
31660;SDS011;18267;52.234;7.444;2024-01-16T05:06:41;11.15;;;3.28;;
31660;SDS011;18267;52.234;7.444;2024-01-16T05:09:07;5.35;;;2.88;;
31660;SDS011;18267;52.234;7.444;2024-01-16T05:11:34;9.82;;;3.60;;
31660;SDS011;18267;52.234;7.444;2024-01-16T05:13:59;5.93;;;3.15;;
31660;SDS011;18267;52.234;7.444;2024-01-16T05:16:25;9.52;;;2.95;;
31660;SDS011;18267;52.234;7.444;2024-01-16T05:18:51;7.28;;;3.50;;
31660;SDS011;18267;52.234;7.444;2024-01-16T05:21:17;7.78;;;3.13;;
31660;SDS011;18267;52.234;7.444;2024-01-16T05:23:43;9.93;;;2.75;;
31660;SDS011;18267;52.234;7.444;2024-01-16T05:26:08;10.25;;;3.95;;
31660;SDS011;18267;52.234;7.444;2024-01-16T05:28:34;13.38;;;3.72;;
31660;SDS011;18267;52.234;7.444;2024-01-16T05:31:00;10.13;;;3.78;;
31660;SDS011;18267;52.234;7.444;2024-01-16T05:33:25;7.47;;;3.88;;
31660;SDS011;18267;52.234;7.444;2024-01-16T05:35:51;6.47;;;3.10;;
31660;SDS011;18267;52.234;7.444;2024-01-16T05:38:16;8.73;;;3.75;;
31660;SDS011;18267;52.234;7.444;2024-01-16T05:40:42;7.65;;;3.92;;
31660;SDS011;18267;52.234;7.444;2024-01-16T05:43:08;7.10;;;3.92;;
31660;SDS011;18267;52.234;7.444;2024-01-16T05:45:33;10.35;;;3.88;;
31660;SDS011;18267;52.234;7.444;2024-01-16T05:47:59;7.10;;;3.72;;
31660;SDS011;18267;52.234;7.444;2024-01-16T05:50:25;8.30;;;4.13;;
31660;SDS011;18267;52.234;7.444;2024-01-16T05:52:50;9.10;;;4.07;;
31660;SDS011;18267;52.234;7.444;2024-01-16T05:55:16;8.25;;;3.30;;
31660;SDS011;18267;52.234;7.444;2024-01-16T05:57:41;9.32;;;3.63;;
31660;SDS011;18267;52.234;7.444;2024-01-16T06:00:08;11.07;;;3.80;;
31660;SDS011;18267;52.234;7.444;2024-01-16T06:02:34;15.40;;;3.50;;
31660;SDS011;18267;52.234;7.444;2024-01-16T06:05:00;6.78;;;3.90;;
31660;SDS011;18267;52.234;7.444;2024-01-16T06:07:27;9.40;;;3.55;;
31660;SDS011;18267;52.234;7.444;2024-01-16T06:09:53;7.50;;;4.03;;
31660;SDS011;18267;52.234;7.444;2024-01-16T06:12:18;7.80;;;3.67;;
31660;SDS011;18267;52.234;7.444;2024-01-16T06:14:44;7.68;;;4.28;;
31660;SDS011;18267;52.234;7.444;2024-01-16T06:17:09;10.18;;;3.97;;
31660;SDS011;18267;52.234;7.444;2024-01-16T06:19:35;6.28;;;3.42;;
31660;SDS011;18267;52.234;7.444;2024-01-16T06:22:00;13.40;;;3.85;;
31660;SDS011;18267;52.234;7.444;2024-01-16T06:24:27;5.45;;;3.70;;
31660;SDS011;18267;52.234;7.444;2024-01-16T06:26:53;6.68;;;3.78;;
31660;SDS011;18267;52.234;7.444;2024-01-16T06:29:18;9.90;;;4.30;;
31660;SDS011;18267;52.234;7.444;2024-01-16T06:31:44;6.15;;;3.20;;
31660;SDS011;18267;52.234;7.444;2024-01-16T06:34:09;8.48;;;3.58;;
31660;SDS011;18267;52.234;7.444;2024-01-16T06:36:35;7.22;;;3.42;;
31660;SDS011;18267;52.234;7.444;2024-01-16T06:39:00;18.60;;;3.70;;
31660;SDS011;18267;52.234;7.444;2024-01-16T06:41:26;8.20;;;3.65;;
31660;SDS011;18267;52.234;7.444;2024-01-16T06:43:51;5.95;;;3.08;;
31660;SDS011;18267;52.234;7.444;2024-01-16T06:46:17;13.32;;;2.83;;
31660;SDS011;18267;52.234;7.444;2024-01-16T06:48:42;17.42;;;3.97;;
31660;SDS011;18267;52.234;7.444;2024-01-16T06:51:08;9.18;;;3.50;;
31660;SDS011;18267;52.234;7.444;2024-01-16T06:53:35;6.07;;;3.10;;
31660;SDS011;18267;52.234;7.444;2024-01-16T06:56:01;5.13;;;3.00;;
31660;SDS011;18267;52.234;7.444;2024-01-16T06:58:28;7.30;;;2.95;;
31660;SDS011;18267;52.234;7.444;2024-01-16T07:00:53;13.15;;;3.92;;
31660;SDS011;18267;52.234;7.444;2024-01-16T07:03:19;6.68;;;3.30;;
31660;SDS011;18267;52.234;7.444;2024-01-16T07:05:44;6.72;;;3.20;;
31660;SDS011;18267;52.234;7.444;2024-01-16T07:08:10;4.57;;;2.55;;
31660;SDS011;18267;52.234;7.444;2024-01-16T07:10:36;7.63;;;3.00;;
31660;SDS011;18267;52.234;7.444;2024-01-16T07:13:01;10.93;;;2.58;;
31660;SDS011;18267;52.234;7.444;2024-01-16T07:15:27;7.32;;;2.80;;
31660;SDS011;18267;52.234;7.444;2024-01-16T07:17:53;4.95;;;2.63;;
31660;SDS011;18267;52.234;7.444;2024-01-16T07:20:19;4.90;;;3.30;;
31660;SDS011;18267;52.234;7.444;2024-01-16T07:22:44;7.10;;;3.10;;
31660;SDS011;18267;52.234;7.444;2024-01-16T07:25:10;4.40;;;2.63;;
31660;SDS011;18267;52.234;7.444;2024-01-16T07:27:36;4.57;;;2.83;;
31660;SDS011;18267;52.234;7.444;2024-01-16T07:30:05;4.72;;;3.00;;
31660;SDS011;18267;52.234;7.444;2024-01-16T07:32:32;5.13;;;2.60;;
31660;SDS011;18267;52.234;7.444;2024-01-16T07:34:58;8.07;;;2.63;;
31660;SDS011;18267;52.234;7.444;2024-01-16T07:37:24;4.40;;;2.58;;
31660;SDS011;18267;52.234;7.444;2024-01-16T07:39:50;5.45;;;2.72;;
31660;SDS011;18267;52.234;7.444;2024-01-16T07:42:16;3.55;;;2.17;;
31660;SDS011;18267;52.234;7.444;2024-01-16T07:44:41;7.18;;;3.15;;
31660;SDS011;18267;52.234;7.444;2024-01-16T07:47:07;5.10;;;2.20;;
31660;SDS011;18267;52.234;7.444;2024-01-16T07:49:33;6.22;;;2.70;;
31660;SDS011;18267;52.234;7.444;2024-01-16T07:51:59;3.47;;;1.95;;
31660;SDS011;18267;52.234;7.444;2024-01-16T07:54:25;7.35;;;2.67;;
31660;SDS011;18267;52.234;7.444;2024-01-16T07:56:51;5.68;;;2.47;;
31660;SDS011;18267;52.234;7.444;2024-01-16T07:59:16;9.73;;;2.88;;
31660;SDS011;18267;52.234;7.444;2024-01-16T08:01:42;5.85;;;1.80;;
31660;SDS011;18267;52.234;7.444;2024-01-16T08:04:08;8.05;;;2.90;;
31660;SDS011;18267;52.234;7.444;2024-01-16T08:06:34;4.57;;;2.50;;
31660;SDS011;18267;52.234;7.444;2024-01-16T08:09:00;9.55;;;3.88;;
31660;SDS011;18267;52.234;7.444;2024-01-16T08:11:25;3.88;;;2.83;;
31660;SDS011;18267;52.234;7.444;2024-01-16T08:13:51;6.45;;;2.88;;
31660;SDS011;18267;52.234;7.444;2024-01-16T08:16:16;5.72;;;2.78;;
31660;SDS011;18267;52.234;7.444;2024-01-16T08:18:42;8.13;;;2.88;;
31660;SDS011;18267;52.234;7.444;2024-01-16T08:21:07;7.13;;;2.20;;
31660;SDS011;18267;52.234;7.444;2024-01-16T08:23:33;6.63;;;2.78;;
31660;SDS011;18267;52.234;7.444;2024-01-16T08:25:59;10.52;;;2.67;;
31660;SDS011;18267;52.234;7.444;2024-01-16T08:28:25;13.43;;;3.30;;
31660;SDS011;18267;52.234;7.444;2024-01-16T08:30:51;5.35;;;3.30;;
31660;SDS011;18267;52.234;7.444;2024-01-16T08:33:17;8.23;;;3.17;;
31660;SDS011;18267;52.234;7.444;2024-01-16T08:35:43;8.95;;;2.85;;
31660;SDS011;18267;52.234;7.444;2024-01-16T08:38:09;8.95;;;3.38;;
31660;SDS011;18267;52.234;7.444;2024-01-16T08:40:34;8.70;;;3.05;;
31660;SDS011;18267;52.234;7.444;2024-01-16T08:43:00;10.77;;;3.13;;
31660;SDS011;18267;52.234;7.444;2024-01-16T08:45:26;8.07;;;2.60;;
31660;SDS011;18267;52.234;7.444;2024-01-16T08:47:51;5.78;;;3.00;;
31660;SDS011;18267;52.234;7.444;2024-01-16T08:50:17;11.70;;;3.53;;
31660;SDS011;18267;52.234;7.444;2024-01-16T08:52:43;6.18;;;2.75;;
31660;SDS011;18267;52.234;7.444;2024-01-16T08:55:08;8.00;;;2.30;;
31660;SDS011;18267;52.234;7.444;2024-01-16T08:57:34;5.68;;;2.80;;
31660;SDS011;18267;52.234;7.444;2024-01-16T09:00:02;2.88;;;2.28;;
31660;SDS011;18267;52.234;7.444;2024-01-16T09:02:31;6.90;;;3.13;;
31660;SDS011;18267;52.234;7.444;2024-01-16T09:04:57;7.28;;;2.33;;
31660;SDS011;18267;52.234;7.444;2024-01-16T09:07:23;5.57;;;2.35;;
31660;SDS011;18267;52.234;7.444;2024-01-16T09:09:49;4.88;;;2.80;;
31660;SDS011;18267;52.234;7.444;2024-01-16T09:12:15;9.43;;;2.75;;
31660;SDS011;18267;52.234;7.444;2024-01-16T09:14:40;8.50;;;3.08;;
31660;SDS011;18267;52.234;7.444;2024-01-16T09:17:06;3.92;;;2.63;;
31660;SDS011;18267;52.234;7.444;2024-01-16T09:19:32;8.57;;;3.10;;
31660;SDS011;18267;52.234;7.444;2024-01-16T09:21:57;9.25;;;3.03;;
31660;SDS011;18267;52.234;7.444;2024-01-16T09:24:23;7.15;;;2.85;;
31660;SDS011;18267;52.234;7.444;2024-01-16T09:26:48;6.20;;;2.92;;
31660;SDS011;18267;52.234;7.444;2024-01-16T09:29:14;8.27;;;2.72;;
31660;SDS011;18267;52.234;7.444;2024-01-16T09:31:40;4.80;;;2.33;;
31660;SDS011;18267;52.234;7.444;2024-01-16T09:34:06;6.85;;;2.78;;
31660;SDS011;18267;52.234;7.444;2024-01-16T09:36:32;4.63;;;2.47;;
31660;SDS011;18267;52.234;7.444;2024-01-16T09:39:00;4.63;;;2.72;;
31660;SDS011;18267;52.234;7.444;2024-01-16T09:41:27;12.93;;;2.90;;
31660;SDS011;18267;52.234;7.444;2024-01-16T09:43:52;11.65;;;2.83;;
31660;SDS011;18267;52.234;7.444;2024-01-16T09:46:21;6.75;;;3.15;;
31660;SDS011;18267;52.234;7.444;2024-01-16T09:48:48;6.32;;;2.50;;
31660;SDS011;18267;52.234;7.444;2024-01-16T09:51:19;8.02;;;3.15;;
31660;SDS011;18267;52.234;7.444;2024-01-16T09:53:44;13.50;;;3.45;;
31660;SDS011;18267;52.234;7.444;2024-01-16T09:56:16;5.07;;;2.33;;
31660;SDS011;18267;52.234;7.444;2024-01-16T09:58:45;4.88;;;2.63;;
31660;SDS011;18267;52.234;7.444;2024-01-16T10:01:13;10.27;;;2.90;;
31660;SDS011;18267;52.234;7.444;2024-01-16T10:03:40;8.57;;;2.45;;
31660;SDS011;18267;52.234;7.444;2024-01-16T10:06:11;9.38;;;2.58;;
31660;SDS011;18267;52.234;7.444;2024-01-16T10:08:39;6.35;;;2.80;;
31660;SDS011;18267;52.234;7.444;2024-01-16T10:11:05;9.32;;;2.67;;
31660;SDS011;18267;52.234;7.444;2024-01-16T10:13:31;6.90;;;3.40;;
31660;SDS011;18267;52.234;7.444;2024-01-16T10:15:57;8.30;;;2.85;;
31660;SDS011;18267;52.234;7.444;2024-01-16T10:18:28;7.90;;;3.63;;
31660;SDS011;18267;52.234;7.444;2024-01-16T10:20:55;7.15;;;3.28;;
31660;SDS011;18267;52.234;7.444;2024-01-16T10:23:24;8.00;;;3.47;;
31660;SDS011;18267;52.234;7.444;2024-01-16T10:28:39;4.82;;;3.22;;
31660;SDS011;18267;52.234;7.444;2024-01-16T10:31:07;6.57;;;3.97;;
31660;SDS011;18267;52.234;7.444;2024-01-16T10:33:34;10.77;;;4.40;;
31660;SDS011;18267;52.234;7.444;2024-01-16T10:36:09;17.02;;;4.45;;
31660;SDS011;18267;52.234;7.444;2024-01-16T10:38:36;10.55;;;4.57;;
31660;SDS011;18267;52.234;7.444;2024-01-16T10:41:12;9.60;;;4.78;;
31660;SDS011;18267;52.234;7.444;2024-01-16T10:43:42;16.98;;;5.60;;
31660;SDS011;18267;52.234;7.444;2024-01-16T10:46:15;14.80;;;5.10;;
31660;SDS011;18267;52.234;7.444;2024-01-16T10:48:43;14.10;;;5.68;;
31660;SDS011;18267;52.234;7.444;2024-01-16T10:51:26;7.35;;;5.03;;
31660;SDS011;18267;52.234;7.444;2024-01-16T10:53:53;9.25;;;4.90;;
31660;SDS011;18267;52.234;7.444;2024-01-16T10:56:24;11.20;;;5.30;;
31660;SDS011;18267;52.234;7.444;2024-01-16T10:59:06;18.13;;;5.00;;
31660;SDS011;18267;52.234;7.444;2024-01-16T11:01:58;8.00;;;5.43;;
31660;SDS011;18267;52.234;7.444;2024-01-16T11:04:26;13.43;;;5.50;;
31660;SDS011;18267;52.234;7.444;2024-01-16T11:06:53;11.65;;;5.20;;
31660;SDS011;18267;52.234;7.444;2024-01-16T11:09:20;9.15;;;5.45;;
31660;SDS011;18267;52.234;7.444;2024-01-16T11:11:46;15.27;;;5.82;;
31660;SDS011;18267;52.234;7.444;2024-01-16T11:14:15;11.73;;;5.20;;
31660;SDS011;18267;52.234;7.444;2024-01-16T11:16:42;10.25;;;5.93;;
31660;SDS011;18267;52.234;7.444;2024-01-16T11:19:08;15.60;;;5.43;;
31660;SDS011;18267;52.234;7.444;2024-01-16T11:21:35;19.55;;;5.57;;
31660;SDS011;18267;52.234;7.444;2024-01-16T11:24:01;5.90;;;4.50;;
31660;SDS011;18267;52.234;7.444;2024-01-16T11:26:28;14.35;;;5.05;;
31660;SDS011;18267;52.234;7.444;2024-01-16T11:28:59;11.27;;;4.63;;
31660;SDS011;18267;52.234;7.444;2024-01-16T11:31:32;10.07;;;4.35;;
31660;SDS011;18267;52.234;7.444;2024-01-16T11:33:59;11.73;;;4.90;;
31660;SDS011;18267;52.234;7.444;2024-01-16T11:39:22;14.52;;;4.18;;
31660;SDS011;18267;52.234;7.444;2024-01-16T11:47:21;5.40;;;3.55;;
31660;SDS011;18267;52.234;7.444;2024-01-16T11:49:49;7.13;;;3.45;;
31660;SDS011;18267;52.234;7.444;2024-01-16T11:58:08;8.02;;;3.20;;
31660;SDS011;18267;52.234;7.444;2024-01-16T12:00:55;6.32;;;3.13;;
31660;SDS011;18267;52.234;7.444;2024-01-16T12:03:22;9.02;;;3.95;;
31660;SDS011;18267;52.234;7.444;2024-01-16T12:05:55;8.48;;;3.15;;
31660;SDS011;18267;52.234;7.444;2024-01-16T12:08:21;4.28;;;2.53;;
31660;SDS011;18267;52.234;7.444;2024-01-16T12:10:47;11.02;;;3.30;;
31660;SDS011;18267;52.234;7.444;2024-01-16T12:13:15;3.88;;;2.13;;
31660;SDS011;18267;52.234;7.444;2024-01-16T12:15:41;12.57;;;2.85;;
31660;SDS011;18267;52.234;7.444;2024-01-16T12:18:08;15.00;;;3.03;;
31660;SDS011;18267;52.234;7.444;2024-01-16T12:20:35;5.18;;;2.13;;
31660;SDS011;18267;52.234;7.444;2024-01-16T12:23:03;15.73;;;3.70;;
31660;SDS011;18267;52.234;7.444;2024-01-16T12:25:33;7.18;;;2.92;;
31660;SDS011;18267;52.234;7.444;2024-01-16T12:28:03;9.10;;;2.63;;
31660;SDS011;18267;52.234;7.444;2024-01-16T12:30:31;7.80;;;2.17;;
31660;SDS011;18267;52.234;7.444;2024-01-16T12:33:07;8.48;;;2.38;;
31660;SDS011;18267;52.234;7.444;2024-01-16T12:38:01;5.90;;;2.10;;
31660;SDS011;18267;52.234;7.444;2024-01-16T12:40:28;6.35;;;2.40;;
31660;SDS011;18267;52.234;7.444;2024-01-16T12:42:54;5.15;;;2.17;;
31660;SDS011;18267;52.234;7.444;2024-01-16T12:45:20;12.05;;;2.72;;
31660;SDS011;18267;52.234;7.444;2024-01-16T12:47:50;7.47;;;1.85;;
31660;SDS011;18267;52.234;7.444;2024-01-16T12:50:23;2.47;;;1.98;;
31660;SDS011;18267;52.234;7.444;2024-01-16T12:55:26;4.38;;;2.20;;
31660;SDS011;18267;52.234;7.444;2024-01-16T13:00:45;11.82;;;2.22;;
31660;SDS011;18267;52.234;7.444;2024-01-16T13:03:17;5.63;;;2.67;;
31660;SDS011;18267;52.234;7.444;2024-01-16T13:05:44;3.42;;;1.63;;
31660;SDS011;18267;52.234;7.444;2024-01-16T13:08:17;4.03;;;1.77;;
31660;SDS011;18267;52.234;7.444;2024-01-16T13:11:01;6.80;;;1.88;;
31660;SDS011;18267;52.234;7.444;2024-01-16T13:14:03;5.10;;;2.08;;
31660;SDS011;18267;52.234;7.444;2024-01-16T13:16:28;7.60;;;2.30;;
31660;SDS011;18267;52.234;7.444;2024-01-16T13:19:00;4.78;;;2.10;;
31660;SDS011;18267;52.234;7.444;2024-01-16T13:21:33;11.00;;;1.92;;
31660;SDS011;18267;52.234;7.444;2024-01-16T13:23:59;7.07;;;2.15;;
31660;SDS011;18267;52.234;7.444;2024-01-16T13:26:24;10.52;;;2.10;;
31660;SDS011;18267;52.234;7.444;2024-01-16T13:28:50;7.65;;;1.90;;
31660;SDS011;18267;52.234;7.444;2024-01-16T13:31:15;8.23;;;2.72;;
31660;SDS011;18267;52.234;7.444;2024-01-16T13:33:41;3.25;;;1.83;;
31660;SDS011;18267;52.234;7.444;2024-01-16T13:36:08;8.80;;;2.15;;
31660;SDS011;18267;52.234;7.444;2024-01-16T13:38:34;3.08;;;1.77;;
31660;SDS011;18267;52.234;7.444;2024-01-16T13:40:59;14.18;;;2.28;;
31660;SDS011;18267;52.234;7.444;2024-01-16T13:43:25;5.85;;;1.60;;
31660;SDS011;18267;52.234;7.444;2024-01-16T13:45:51;8.10;;;1.80;;
31660;SDS011;18267;52.234;7.444;2024-01-16T13:48:17;3.95;;;2.10;;
31660;SDS011;18267;52.234;7.444;2024-01-16T13:50:42;8.77;;;1.92;;
31660;SDS011;18267;52.234;7.444;2024-01-16T13:53:09;7.63;;;2.20;;
31660;SDS011;18267;52.234;7.444;2024-01-16T13:55:37;4.82;;;1.85;;
31660;SDS011;18267;52.234;7.444;2024-01-16T13:58:03;6.13;;;1.77;;
31660;SDS011;18267;52.234;7.444;2024-01-16T14:00:29;15.18;;;2.33;;
31660;SDS011;18267;52.234;7.444;2024-01-16T14:02:55;8.52;;;2.65;;
31660;SDS011;18267;52.234;7.444;2024-01-16T14:05:21;4.47;;;1.85;;
31660;SDS011;18267;52.234;7.444;2024-01-16T14:07:48;10.63;;;2.22;;
31660;SDS011;18267;52.234;7.444;2024-01-16T14:10:18;9.05;;;2.50;;
31660;SDS011;18267;52.234;7.444;2024-01-16T14:12:45;7.65;;;1.85;;
31660;SDS011;18267;52.234;7.444;2024-01-16T14:15:12;3.13;;;1.52;;
31660;SDS011;18267;52.234;7.444;2024-01-16T14:17:48;9.13;;;1.70;;
31660;SDS011;18267;52.234;7.444;2024-01-16T14:20:16;7.47;;;2.08;;
31660;SDS011;18267;52.234;7.444;2024-01-16T14:22:43;10.60;;;1.80;;
31660;SDS011;18267;52.234;7.444;2024-01-16T14:25:09;6.70;;;2.25;;
31660;SDS011;18267;52.234;7.444;2024-01-16T14:27:39;7.32;;;1.90;;
31660;SDS011;18267;52.234;7.444;2024-01-16T14:30:06;7.63;;;1.88;;
31660;SDS011;18267;52.234;7.444;2024-01-16T14:32:35;3.53;;;1.92;;
31660;SDS011;18267;52.234;7.444;2024-01-16T14:35:02;6.65;;;2.10;;
31660;SDS011;18267;52.234;7.444;2024-01-16T14:37:29;8.77;;;1.73;;
31660;SDS011;18267;52.234;7.444;2024-01-16T14:39:55;10.13;;;2.15;;
31660;SDS011;18267;52.234;7.444;2024-01-16T14:42:21;4.38;;;2.28;;
31660;SDS011;18267;52.234;7.444;2024-01-16T14:44:47;3.35;;;1.80;;
31660;SDS011;18267;52.234;7.444;2024-01-16T14:47:13;3.50;;;1.58;;
31660;SDS011;18267;52.234;7.444;2024-01-16T14:49:38;3.40;;;1.65;;
31660;SDS011;18267;52.234;7.444;2024-01-16T14:52:04;8.02;;;2.10;;
31660;SDS011;18267;52.234;7.444;2024-01-16T14:54:32;6.43;;;2.40;;
31660;SDS011;18267;52.234;7.444;2024-01-16T14:56:58;6.05;;;2.30;;
31660;SDS011;18267;52.234;7.444;2024-01-16T14:59:24;7.32;;;2.60;;
31660;SDS011;18267;52.234;7.444;2024-01-16T15:01:49;4.57;;;1.98;;
31660;SDS011;18267;52.234;7.444;2024-01-16T15:04:16;7.82;;;2.13;;
31660;SDS011;18267;52.234;7.444;2024-01-16T15:06:42;12.43;;;2.17;;
31660;SDS011;18267;52.234;7.444;2024-01-16T15:09:08;5.80;;;1.83;;